Indianapolis, Indiana
Traffic Map
Current Weather Conditions
Indianapolis, Indiana
Overcast
Overcast

Feels Like: 8°
Wind Chill: Ceiling: 6000
Heat Index: Visibility: 10mi
Dew Point: Wind: 3mph
Humidity: 74% Direction: 290° (WNW)
Pressure: 30.03in Gusts: 0mph
Raw Report DataKIND 310554Z 29003KT 10SM FEW042 OVC060 08/04 A3003 RMK AO2 SLP170 60000 T00830039 10106 20083 58006
Traffic Incident Summary
Active as of:
Severity:
Category:
InformationThere was an issue retrieving the traffic information for this location. Please try a different location or try again shortly.
Advertisements
Track Severe Weather on mobile